createdAt,value
2016-10-31T00:00:13.202Z,7.79
2016-10-31T00:01:12.973Z,7.93
2016-10-31T00:02:12.964Z,7.87
2016-10-31T00:03:12.944Z,7.84
2016-10-31T00:04:13.246Z,7.97
2016-10-31T00:05:12.913Z,8.02
2016-10-31T00:06:12.894Z,8.07
2016-10-31T00:07:13.205Z,8.1
2016-10-31T00:08:12.864Z,8.15
2016-10-31T00:09:12.851Z,8.14
2016-10-31T00:10:12.831Z,8.29
2016-10-31T00:11:12.828Z,8.25
2016-10-31T00:12:12.801Z,8.25
2016-10-31T00:13:12.816Z,8.28
2016-10-31T00:14:12.763Z,8.33
2016-10-31T00:15:12.757Z,8.33
2016-10-31T00:16:12.732Z,8.33
2016-10-31T00:17:12.723Z,8.4
2016-10-31T00:18:12.706Z,8.44
2016-10-31T00:19:12.687Z,8.45
2016-10-31T00:20:12.686Z,8.47
2016-10-31T00:21:12.653Z,8.54
2016-10-31T00:22:12.633Z,8.55
2016-10-31T00:23:12.621Z,8.57
2016-10-31T00:24:12.605Z,8.66
2016-10-31T00:25:12.587Z,8.66
2016-10-31T00:26:12.581Z,8.62
2016-10-31T00:27:12.560Z,8.6
2016-10-31T00:28:12.577Z,8.69
2016-10-31T00:29:12.527Z,8.55
2016-10-31T00:30:12.513Z,8.75
2016-10-31T00:31:12.498Z,8.75
2016-10-31T00:32:12.483Z,8.78
2016-10-31T00:33:12.475Z,8.79
2016-10-31T00:34:12.454Z,8.75
2016-10-31T00:35:12.432Z,8.73
2016-10-31T00:36:12.420Z,8.86
2016-10-31T00:37:12.430Z,8.79
2016-10-31T00:38:12.395Z,8.84
2016-10-31T00:39:12.369Z,8.87
2016-10-31T00:40:12.356Z,8.78
2016-10-31T00:41:12.340Z,8.76
2016-10-31T00:42:12.326Z,8.78
2016-10-31T00:43:12.308Z,8.88
2016-10-31T00:44:12.608Z,8.84
2016-10-31T00:45:12.907Z,8.84
2016-10-31T00:46:12.576Z,8.94
2016-10-31T00:47:12.245Z,8.91
2016-10-31T00:48:12.541Z,8.93
2016-10-31T00:49:12.220Z,8.9
2016-10-31T00:50:12.206Z,8.96
2016-10-31T00:51:12.545Z,8.96
2016-10-31T00:52:12.175Z,8.9
2016-10-31T00:53:12.153Z,8.97
2016-10-31T00:54:12.141Z,8.93
2016-10-31T00:55:12.437Z,9.06
2016-10-31T00:56:12.114Z,9.02
2016-10-31T00:57:12.096Z,9.06
2016-10-31T00:58:12.079Z,9.1
2016-10-31T00:59:12.377Z,9.15
2016-10-31T01:00:12.045Z,9.16
2016-10-31T01:01:12.040Z,9.12
2016-10-31T01:02:12.022Z,9.13
2016-10-31T01:03:12.321Z,9.18
2016-10-31T01:04:12.296Z,9.2
2016-10-31T01:05:11.972Z,9.13
2016-10-31T01:06:11.965Z,9.16
2016-10-31T01:07:11.938Z,9.27
2016-10-31T01:08:12.254Z,9.21
2016-10-31T01:09:11.911Z,9.21
2016-10-31T01:10:12.209Z,9.13
2016-10-31T01:11:11.881Z,9.25
2016-10-31T01:12:11.870Z,9.25
2016-10-31T01:13:11.852Z,9.25
2016-10-31T01:14:11.834Z,9.31
2016-10-31T01:15:11.820Z,9.24
2016-10-31T01:16:11.803Z,9.27
2016-10-31T01:17:11.825Z,9.38
2016-10-31T01:18:11.770Z,9.25
2016-10-31T01:19:11.769Z,9.34
2016-10-31T01:20:11.743Z,9.3
2016-10-31T01:21:11.723Z,9.25
2016-10-31T01:22:11.718Z,9.28
2016-10-31T01:23:11.699Z,9.27
2016-10-31T01:24:11.680Z,9.31
2016-10-31T01:25:11.978Z,9.27
2016-10-31T01:26:11.652Z,9.27
2016-10-31T01:27:11.642Z,9.31
2016-10-31T01:28:11.665Z,9.42
2016-10-31T01:29:11.607Z,9.42
2016-10-31T01:30:11.628Z,9.45
2016-10-31T01:31:11.577Z,9.32
2016-10-31T01:32:11.558Z,9.38
2016-10-31T01:33:11.545Z,9.42
2016-10-31T01:34:11.531Z,9.39
2016-10-31T01:35:11.839Z,9.39
2016-10-31T01:36:11.497Z,9.38
2016-10-31T01:37:11.488Z,9.39
2016-10-31T01:38:11.785Z,9.43
2016-10-31T01:39:11.452Z,9.43
2016-10-31T01:40:11.442Z,9.4
2016-10-31T01:41:11.420Z,9.46
2016-10-31T01:42:11.407Z,9.46
2016-10-31T01:43:11.392Z,9.38
2016-10-31T01:44:11.384Z,9.45
2016-10-31T01:45:11.681Z,9.43
2016-10-31T01:46:11.351Z,9.46
2016-10-31T01:47:11.329Z,9.4
2016-10-31T01:48:11.326Z,9.43
2016-10-31T01:49:11.298Z,9.43
2016-10-31T01:50:11.291Z,9.46
2016-10-31T01:51:11.274Z,9.48
2016-10-31T01:52:11.259Z,9.4
2016-10-31T01:53:11.239Z,9.52
2016-10-31T01:54:11.232Z,9.39
2016-10-31T01:55:11.245Z,9.43
2016-10-31T01:56:11.199Z,9.43
2016-10-31T01:57:11.495Z,9.43
2016-10-31T01:58:11.162Z,9.42
2016-10-31T01:59:11.150Z,9.4
2016-10-31T02:00:11.342Z,9.31
2016-10-31T02:01:11.124Z,9.31
2016-10-31T02:02:11.106Z,9.27
2016-10-31T02:03:11.101Z,9.28
2016-10-31T02:04:11.075Z,9.25
2016-10-31T02:05:11.055Z,9.31
2016-10-31T02:06:11.048Z,9.27
2016-10-31T02:07:11.037Z,9.28
2016-10-31T02:08:11.012Z,9.32
2016-10-31T02:09:11.001Z,9.27
2016-10-31T02:10:11.302Z,9.32
2016-10-31T02:11:10.969Z,9.34
2016-10-31T02:12:10.951Z,9.27
2016-10-31T02:13:10.985Z,9.35
2016-10-31T02:14:11.241Z,9.25
2016-10-31T02:15:10.914Z,9.31
2016-10-31T02:16:10.903Z,9.31
2016-10-31T02:17:11.191Z,9.35
2016-10-31T02:18:10.867Z,9.42
2016-10-31T02:19:11.166Z,9.34
2016-10-31T02:20:10.835Z,9.38
2016-10-31T02:21:10.822Z,9.39
2016-10-31T02:22:11.119Z,9.43
2016-10-31T02:23:10.791Z,9.46
2016-10-31T02:24:10.809Z,9.38
2016-10-31T02:25:10.759Z,9.43
2016-10-31T02:26:10.738Z,9.42
2016-10-31T02:27:11.037Z,9.45
2016-10-31T02:28:11.059Z,9.43
2016-10-31T02:29:10.693Z,9.4
2016-10-31T02:30:10.682Z,9.46
2016-10-31T02:31:10.673Z,9.49
2016-10-31T02:32:10.692Z,9.4
2016-10-31T02:33:10.636Z,9.4
2016-10-31T02:34:11.259Z,9.43
2016-10-31T02:35:10.618Z,9.58
2016-10-31T02:36:10.591Z,9.53
2016-10-31T02:37:10.580Z,9.56
2016-10-31T02:38:10.571Z,9.58
2016-10-31T02:39:10.544Z,9.6
2016-10-31T02:40:10.531Z,9.56
2016-10-31T02:41:10.522Z,9.58
2016-10-31T02:42:10.546Z,9.57
2016-10-31T02:43:10.487Z,9.6
2016-10-31T02:44:10.783Z,9.56
2016-10-31T02:45:10.491Z,9.63
2016-10-31T02:46:10.442Z,9.6
2016-10-31T02:47:10.437Z,9.57
2016-10-31T02:48:10.424Z,9.52
2016-10-31T02:49:10.396Z,9.6
2016-10-31T02:50:10.413Z,9.56
2016-10-31T02:51:10.409Z,9.53
2016-10-31T02:52:10.355Z,9.58
2016-10-31T02:53:10.344Z,9.57
2016-10-31T02:54:10.324Z,9.56
2016-10-31T02:55:10.346Z,9.57
2016-10-31T02:56:10.297Z,9.56
2016-10-31T02:57:10.278Z,9.57
2016-10-31T02:58:10.311Z,9.61
2016-10-31T02:59:10.562Z,9.64
2016-10-31T03:00:10.234Z,9.63
2016-10-31T03:01:10.216Z,9.57
2016-10-31T03:02:10.207Z,9.61
2016-10-31T03:03:10.185Z,9.67
2016-10-31T03:04:10.177Z,9.61
2016-10-31T03:05:10.160Z,9.67
2016-10-31T03:06:10.178Z,9.66
2016-10-31T03:07:10.502Z,9.7
2016-10-31T03:08:10.116Z,9.64
2016-10-31T03:09:10.101Z,9.67
2016-10-31T03:10:10.086Z,9.58
2016-10-31T03:11:10.074Z,9.63
2016-10-31T03:12:10.373Z,9.64
2016-10-31T03:13:10.680Z,9.61
2016-10-31T03:14:10.707Z,9.58
2016-10-31T03:15:10.325Z,9.58
2016-10-31T03:16:09.995Z,9.61
2016-10-31T03:17:09.984Z,9.52
2016-10-31T03:18:10.287Z,9.6
2016-10-31T03:19:09.961Z,9.53
2016-10-31T03:20:10.003Z,9.6
2016-10-31T03:21:10.551Z,9.64
2016-10-31T03:22:09.911Z,9.57
2016-10-31T03:23:09.913Z,9.66
2016-10-31T03:24:09.877Z,9.61
2016-10-31T03:25:10.178Z,9.61
2016-10-31T03:26:09.859Z,9.6
2016-10-31T03:27:10.159Z,9.61
2016-10-31T03:28:09.844Z,9.64
2016-10-31T03:29:09.808Z,9.64
2016-10-31T03:30:10.157Z,9.61
2016-10-31T03:31:09.787Z,9.63
2016-10-31T03:32:09.782Z,9.63
2016-10-31T03:33:09.782Z,9.64
2016-10-31T03:34:09.734Z,9.64
2016-10-31T03:35:09.729Z,9.6
2016-10-31T03:36:09.699Z,9.64
2016-10-31T03:37:10.003Z,9.67
2016-10-31T03:38:09.677Z,9.6
2016-10-31T03:39:09.979Z,9.58
2016-10-31T03:40:09.959Z,9.6
2016-10-31T03:41:09.656Z,9.52
2016-10-31T03:42:09.613Z,9.6
2016-10-31T03:43:09.914Z,9.6
2016-10-31T03:44:09.590Z,9.53
2016-10-31T03:45:09.568Z,9.57
2016-10-31T03:46:09.550Z,9.58
2016-10-31T03:47:09.546Z,9.6
2016-10-31T03:48:09.525Z,9.57
2016-10-31T03:49:09.514Z,9.58
2016-10-31T03:50:09.537Z,9.57
2016-10-31T03:51:09.475Z,9.56
2016-10-31T03:52:09.463Z,9.53
2016-10-31T03:53:09.453Z,9.52
2016-10-31T03:54:09.769Z,9.52
2016-10-31T03:55:09.734Z,9.56
2016-10-31T03:56:09.449Z,9.52
2016-10-31T03:57:09.387Z,9.39
2016-10-31T03:58:09.377Z,9.4
2016-10-31T03:59:09.373Z,9.4
2016-10-31T04:00:09.594Z,9.43
2016-10-31T04:01:09.329Z,9.42
2016-10-31T04:02:09.314Z,9.42
2016-10-31T04:03:09.296Z,9.28
2016-10-31T04:04:09.296Z,9.32
2016-10-31T04:05:09.648Z,9.24
2016-10-31T04:06:09.255Z,9.27
2016-10-31T04:07:09.280Z,9.2
2016-10-31T04:08:09.231Z,9.09
2016-10-31T04:09:09.527Z,9.05
2016-10-31T04:10:09.561Z,8.88
2016-10-31T04:11:09.493Z,8.97
2016-10-31T04:12:09.170Z,8.86
2016-10-31T04:13:09.153Z,8.9
2016-10-31T04:14:09.187Z,8.83
2016-10-31T04:15:09.120Z,8.88
2016-10-31T04:16:09.416Z,8.83
2016-10-31T04:17:09.092Z,8.88
2016-10-31T04:18:09.074Z,8.81
2016-10-31T04:19:09.059Z,8.69
2016-10-31T04:20:09.044Z,8.72
2016-10-31T04:21:09.059Z,8.69
2016-10-31T04:22:09.016Z,8.72
2016-10-31T04:23:09.027Z,8.75
2016-10-31T04:24:08.988Z,8.79
2016-10-31T04:25:08.964Z,8.73
2016-10-31T04:26:08.953Z,8.75
2016-10-31T04:27:08.934Z,8.72
2016-10-31T04:28:09.234Z,8.86
2016-10-31T04:29:08.902Z,8.79
2016-10-31T04:30:08.887Z,8.72
2016-10-31T04:31:08.881Z,8.79
2016-10-31T04:32:08.859Z,8.83
2016-10-31T04:33:08.846Z,8.81
2016-10-31T04:34:08.831Z,8.87
2016-10-31T04:35:08.817Z,8.88
2016-10-31T04:36:09.112Z,8.91
2016-10-31T04:37:08.779Z,8.84
2016-10-31T04:38:08.761Z,8.83
2016-10-31T04:39:08.753Z,8.91
2016-10-31T04:40:08.732Z,8.86
2016-10-31T04:41:08.723Z,8.86
2016-10-31T04:42:09.035Z,8.84
2016-10-31T04:43:08.697Z,8.91
2016-10-31T04:44:08.994Z,8.97
2016-10-31T04:45:08.673Z,8.79
2016-10-31T04:46:08.643Z,8.91
2016-10-31T04:47:08.937Z,8.78
2016-10-31T04:48:08.611Z,8.84
2016-10-31T04:49:08.593Z,8.84
2016-10-31T04:50:08.893Z,8.84
2016-10-31T04:51:08.563Z,8.81
2016-10-31T04:52:08.548Z,8.83
2016-10-31T04:53:08.538Z,8.84
2016-10-31T04:54:08.521Z,8.84
2016-10-31T04:55:08.825Z,8.9
2016-10-31T04:56:08.846Z,8.88
2016-10-31T04:57:08.473Z,8.84
2016-10-31T04:58:08.461Z,8.79
2016-10-31T04:59:08.439Z,8.83
2016-10-31T05:00:08.425Z,8.86
2016-10-31T05:01:09.143Z,8.88
2016-10-31T05:02:08.409Z,8.78
2016-10-31T05:03:08.383Z,8.72
2016-10-31T05:04:08.365Z,8.75
2016-10-31T05:05:08.668Z,8.75
2016-10-31T05:06:08.432Z,8.72
2016-10-31T05:07:08.318Z,8.73
2016-10-31T05:08:08.306Z,8.71
2016-10-31T05:09:08.286Z,8.75
2016-10-31T05:10:08.580Z,8.65
2016-10-31T05:11:08.575Z,8.71
2016-10-31T05:12:08.253Z,8.71
2016-10-31T05:13:08.543Z,8.69
2016-10-31T05:14:08.223Z,8.58
2016-10-31T05:15:08.510Z,8.72
2016-10-31T05:16:08.201Z,8.71
2016-10-31T05:17:08.165Z,8.65
2016-10-31T05:18:08.152Z,8.75
2016-10-31T05:19:08.459Z,8.73
2016-10-31T05:20:08.434Z,8.73
2016-10-31T05:21:08.098Z,8.73
2016-10-31T05:22:08.085Z,8.73
2016-10-31T05:23:08.102Z,8.71
2016-10-31T05:24:08.052Z,8.73
2016-10-31T05:25:08.350Z,8.72
2016-10-31T05:26:08.028Z,8.73
2016-10-31T05:27:08.325Z,8.75
2016-10-31T05:28:07.989Z,8.72
2016-10-31T05:29:08.298Z,8.72
2016-10-31T05:30:08.608Z,8.73
2016-10-31T05:31:07.944Z,8.73
2016-10-31T05:32:08.248Z,8.71
2016-10-31T05:33:07.915Z,8.72
2016-10-31T05:34:07.900Z,8.86
2016-10-31T05:35:07.888Z,8.78
2016-10-31T05:36:07.866Z,8.86
2016-10-31T05:37:07.853Z,8.86
2016-10-31T05:38:08.160Z,8.79
2016-10-31T05:39:08.448Z,8.84
2016-10-31T05:40:08.116Z,8.84
2016-10-31T05:41:08.102Z,8.91
2016-10-31T05:42:07.776Z,8.83
2016-10-31T05:43:07.759Z,8.9
2016-10-31T05:44:07.741Z,8.9
2016-10-31T05:45:07.730Z,8.91
2016-10-31T05:46:07.712Z,8.9
2016-10-31T05:47:07.700Z,8.9
2016-10-31T05:48:07.681Z,8.84
2016-10-31T05:49:07.668Z,8.79
2016-10-31T05:50:07.647Z,8.75
2016-10-31T05:51:07.639Z,8.83
2016-10-31T05:52:07.672Z,8.86
2016-10-31T05:53:07.602Z,8.86
2016-10-31T05:54:07.589Z,8.86
2016-10-31T05:55:07.570Z,8.9
2016-10-31T05:56:07.591Z,8.84
2016-10-31T05:57:07.582Z,8.93
2016-10-31T05:58:07.543Z,8.93
2016-10-31T05:59:07.514Z,8.94
2016-10-31T06:00:07.696Z,8.87
2016-10-31T06:01:07.483Z,8.93
2016-10-31T06:02:07.471Z,8.96
2016-10-31T06:03:07.447Z,8.94
2016-10-31T06:04:07.435Z,8.94
2016-10-31T06:05:07.415Z,8.91
2016-10-31T06:06:07.399Z,8.96
2016-10-31T06:07:07.701Z,8.87
2016-10-31T06:08:07.369Z,8.86
2016-10-31T06:09:07.676Z,8.97
2016-10-31T06:10:07.657Z,8.91
2016-10-31T06:11:07.325Z,8.94
2016-10-31T06:12:07.308Z,8.87
2016-10-31T06:13:07.295Z,8.81
2016-10-31T06:14:07.282Z,8.83
2016-10-31T06:15:07.264Z,8.87
2016-10-31T06:16:07.573Z,8.93
2016-10-31T06:17:07.288Z,8.9
2016-10-31T06:18:07.216Z,8.79
2016-10-31T06:19:07.197Z,8.68
2016-10-31T06:20:07.500Z,8.75
2016-10-31T06:21:07.170Z,8.72
2016-10-31T06:22:07.150Z,8.72
2016-10-31T06:23:07.146Z,8.65
2016-10-31T06:24:07.123Z,8.58
2016-10-31T06:25:07.429Z,8.63
2016-10-31T06:26:07.095Z,8.62
2016-10-31T06:27:07.083Z,8.58
2016-10-31T06:28:07.061Z,8.58
2016-10-31T06:29:07.043Z,8.57
2016-10-31T06:30:07.336Z,8.42
2016-10-31T06:31:07.334Z,8.44
2016-10-31T06:32:07.314Z,8.48
2016-10-31T06:33:07.295Z,8.45
2016-10-31T06:34:06.964Z,8.32
2016-10-31T06:35:06.947Z,8.35
2016-10-31T06:36:07.247Z,8.29
2016-10-31T06:37:06.917Z,8.32
2016-10-31T06:38:06.910Z,8.18
2016-10-31T06:39:06.887Z,8.35
2016-10-31T06:40:06.867Z,8.33
2016-10-31T06:41:06.855Z,8.35
2016-10-31T06:42:06.835Z,8.32
2016-10-31T06:43:06.820Z,8.32
2016-10-31T06:44:06.806Z,8.33
2016-10-31T06:45:07.100Z,8.3
2016-10-31T06:46:06.775Z,8.32
2016-10-31T06:47:06.757Z,8.28
2016-10-31T06:48:06.781Z,8.25
2016-10-31T06:49:07.038Z,8.3
2016-10-31T06:50:07.341Z,8.32
2016-10-31T06:51:06.698Z,8.26
2016-10-31T06:52:06.678Z,8.35
2016-10-31T06:53:06.664Z,8.29
2016-10-31T06:54:06.647Z,8.39
2016-10-31T06:55:06.633Z,8.36
2016-10-31T06:56:06.614Z,8.32
2016-10-31T06:57:06.599Z,8.28
2016-10-31T06:58:06.598Z,8.28
2016-10-31T06:59:06.582Z,8.22
2016-10-31T07:00:06.548Z,8.28
2016-10-31T07:01:06.535Z,8.35
2016-10-31T07:02:07.158Z,8.25
2016-10-31T07:03:06.825Z,8.3
2016-10-31T07:04:06.491Z,8.25
2016-10-31T07:05:06.783Z,8.25
2016-10-31T07:06:06.771Z,8.32
2016-10-31T07:07:06.440Z,8.28
2016-10-31T07:08:06.429Z,8.26
2016-10-31T07:09:06.408Z,8.36
2016-10-31T07:10:06.403Z,8.28
2016-10-31T07:11:06.376Z,8.25
2016-10-31T07:12:06.359Z,8.28
2016-10-31T07:13:06.658Z,8.26
2016-10-31T07:14:06.326Z,8.35
2016-10-31T07:15:06.635Z,8.32
2016-10-31T07:16:06.299Z,8.33
2016-10-31T07:17:06.289Z,8.37
2016-10-31T07:18:06.266Z,8.32
2016-10-31T07:19:06.248Z,8.48
2016-10-31T07:20:06.546Z,8.53
2016-10-31T07:21:06.222Z,8.53
2016-10-31T07:22:06.523Z,8.58
2016-10-31T07:23:06.499Z,8.69
2016-10-31T07:24:06.176Z,8.69
2016-10-31T07:25:06.472Z,8.73
2016-10-31T07:26:06.144Z,8.75
2016-10-31T07:27:06.122Z,8.83
2016-10-31T07:28:06.112Z,8.81
2016-10-31T07:29:06.092Z,8.87
2016-10-31T07:30:06.086Z,8.79
2016-10-31T07:31:06.064Z,8.93
2016-10-31T07:32:06.058Z,8.93
2016-10-31T07:33:06.033Z,9.06
2016-10-31T07:34:06.061Z,9.15
2016-10-31T07:35:06.310Z,9.18
2016-10-31T07:36:05.983Z,9.25
2016-10-31T07:37:05.968Z,9.35
2016-10-31T07:38:06.287Z,9.43
2016-10-31T07:39:05.948Z,9.45
2016-10-31T07:40:05.924Z,9.64
2016-10-31T07:41:05.910Z,10.01
2016-10-31T07:42:05.897Z,10.24
2016-10-31T07:43:05.876Z,10.44
2016-10-31T07:44:05.865Z,10.4
2016-10-31T07:45:05.849Z,10.37
2016-10-31T07:46:05.831Z,10.25
2016-10-31T07:47:06.142Z,10.24
2016-10-31T07:48:05.813Z,10.24
2016-10-31T07:49:05.786Z,10.21
2016-10-31T07:50:05.775Z,10.26
2016-10-31T07:51:05.761Z,10.15
2016-10-31T07:52:05.743Z,10.07
2016-10-31T07:53:06.077Z,10.01
2016-10-31T07:54:06.342Z,10.07
2016-10-31T07:55:05.703Z,10
2016-10-31T07:56:06.001Z,10
2016-10-31T07:57:05.674Z,9.99
2016-10-31T07:58:05.739Z,9.93
2016-10-31T07:59:05.640Z,9.94
2016-10-31T08:00:06.148Z,9.93
2016-10-31T08:01:05.613Z,9.97
2016-10-31T08:02:05.911Z,10.03
2016-10-31T08:03:05.592Z,9.96
2016-10-31T08:04:05.581Z,9.97
2016-10-31T08:05:05.559Z,9.89
2016-10-31T08:06:05.547Z,9.91
2016-10-31T08:07:05.530Z,9.89
2016-10-31T08:08:05.519Z,9.88
2016-10-31T08:09:05.504Z,9.85
2016-10-31T08:10:05.488Z,9.89
2016-10-31T08:11:05.473Z,10
2016-10-31T08:12:05.460Z,9.96
2016-10-31T08:13:05.441Z,10
2016-10-31T08:14:05.425Z,9.91
2016-10-31T08:15:05.412Z,9.99
2016-10-31T08:16:05.400Z,9.96
2016-10-31T08:17:05.692Z,9.96
2016-10-31T08:18:05.678Z,10.04
2016-10-31T08:19:05.670Z,9.89
2016-10-31T08:20:05.336Z,9.93
2016-10-31T08:21:05.331Z,9.96
2016-10-31T08:22:05.623Z,10.01
2016-10-31T08:23:05.307Z,10
2016-10-31T08:24:05.603Z,10.06
2016-10-31T08:25:05.583Z,10.06
2016-10-31T08:26:05.248Z,10.09
2016-10-31T08:27:05.243Z,10.03
2016-10-31T08:28:05.535Z,10.1
2016-10-31T08:29:05.210Z,10.06
2016-10-31T08:30:05.214Z,10.18
2016-10-31T08:31:05.180Z,10.18
2016-10-31T08:32:05.164Z,10.26
2016-10-31T08:33:05.149Z,10.34
2016-10-31T08:34:05.133Z,10.24
2016-10-31T08:35:05.113Z,10.33
2016-10-31T08:36:05.101Z,10.43
2016-10-31T08:37:05.088Z,10.43
2016-10-31T08:38:05.076Z,10.36
2016-10-31T08:39:05.369Z,10.39
2016-10-31T08:40:05.058Z,10.4
2016-10-31T08:41:05.044Z,10.4
2016-10-31T08:42:05.020Z,10.39
2016-10-31T08:43:05.005Z,10.42
2016-10-31T08:44:05.021Z,10.4
2016-10-31T08:45:04.979Z,10.39
2016-10-31T08:46:04.963Z,10.4
2016-10-31T08:47:04.945Z,10.4
2016-10-31T08:48:05.291Z,10.43
2016-10-31T08:49:04.917Z,10.42
2016-10-31T08:50:04.908Z,10.4
2016-10-31T08:51:04.937Z,10.52
2016-10-31T08:52:05.194Z,10.47
2016-10-31T08:53:04.855Z,10.52
2016-10-31T08:54:05.159Z,10.47
2016-10-31T08:55:04.832Z,10.56
2016-10-31T08:56:04.855Z,10.58
2016-10-31T08:57:04.804Z,10.47
2016-10-31T08:58:05.097Z,10.56
2016-10-31T08:59:04.785Z,10.63
2016-10-31T09:00:05.080Z,10.77
2016-10-31T09:01:05.060Z,10.73
2016-10-31T09:02:04.733Z,10.78
2016-10-31T09:03:04.720Z,11.06
2016-10-31T09:04:04.704Z,11.31
2016-10-31T09:05:04.688Z,11.53
2016-10-31T09:06:04.679Z,11.68
2016-10-31T09:07:04.660Z,11.7
2016-10-31T09:08:04.673Z,11.74
2016-10-31T09:09:04.642Z,11.68
2016-10-31T09:10:04.626Z,11.82
2016-10-31T09:11:04.924Z,11.83
2016-10-31T09:12:04.914Z,11.75
2016-10-31T09:13:04.578Z,11.82
2016-10-31T09:14:04.577Z,11.75
2016-10-31T09:15:04.557Z,11.67
2016-10-31T09:16:04.852Z,11.7
2016-10-31T09:17:04.522Z,11.59
2016-10-31T09:18:04.560Z,11.62
2016-10-31T09:19:04.505Z,11.59
2016-10-31T09:20:04.490Z,11.54
2016-10-31T09:21:04.786Z,11.56
2016-10-31T09:22:04.462Z,11.5
2016-10-31T09:23:04.440Z,11.57
2016-10-31T09:24:04.428Z,11.56
2016-10-31T09:25:04.411Z,11.65
2016-10-31T09:26:04.398Z,11.67
2016-10-31T09:27:04.388Z,11.65
2016-10-31T09:28:04.693Z,11.67
2016-10-31T09:29:04.670Z,11.97
2016-10-31T09:30:04.344Z,12.24
2016-10-31T09:31:04.335Z,12.29
2016-10-31T09:32:04.322Z,12.26
2016-10-31T09:33:04.620Z,12.23
2016-10-31T09:34:04.291Z,12.12
2016-10-31T09:35:04.279Z,12.05
2016-10-31T09:36:04.580Z,12.04
2016-10-31T09:37:04.256Z,12.06
2016-10-31T09:38:04.253Z,12.09
2016-10-31T09:39:04.535Z,12.06
2016-10-31T09:40:04.540Z,12.06
2016-10-31T09:41:04.200Z,12.08
2016-10-31T09:42:04.183Z,12.11
2016-10-31T09:43:04.225Z,12.13
2016-10-31T09:44:04.160Z,12.12
2016-10-31T09:45:04.469Z,12.11
2016-10-31T09:46:04.134Z,12.15
2016-10-31T09:47:04.430Z,12.19
2016-10-31T09:48:04.114Z,12.2
2016-10-31T09:49:04.096Z,12.31
2016-10-31T09:50:04.426Z,12.27
2016-10-31T09:51:04.069Z,12.24
2016-10-31T09:52:04.362Z,12.23
2016-10-31T09:53:04.043Z,12.3
2016-10-31T09:54:04.343Z,12.26
2016-10-31T09:55:04.329Z,12.3
2016-10-31T09:56:04.629Z,12.37
2016-10-31T09:57:03.990Z,12.41
2016-10-31T09:58:04.285Z,12.46
2016-10-31T09:59:03.961Z,12.31
2016-10-31T10:00:03.946Z,12.48
2016-10-31T10:01:04.135Z,12.46
2016-10-31T10:02:03.927Z,12.49
2016-10-31T10:03:03.913Z,12.48
2016-10-31T10:04:03.910Z,12.48
2016-10-31T10:05:03.887Z,12.46
2016-10-31T10:06:03.870Z,12.52
2016-10-31T10:07:04.515Z,12.78
2016-10-31T10:08:04.481Z,13.11
2016-10-31T10:09:04.162Z,13.38
2016-10-31T10:10:03.827Z,13.73
2016-10-31T10:11:03.818Z,13.83
2016-10-31T10:12:04.149Z,13.95
2016-10-31T10:13:03.809Z,13.94
2016-10-31T10:14:03.806Z,14.04
2016-10-31T10:15:04.394Z,14.04
2016-10-31T10:16:03.763Z,13.95
2016-10-31T10:17:03.757Z,13.87
2016-10-31T10:18:03.737Z,13.77
2016-10-31T10:19:03.724Z,13.81
2016-10-31T10:20:03.768Z,13.71
2016-10-31T10:21:04.055Z,13.83
2016-10-31T10:22:04.038Z,13.84
2016-10-31T10:23:03.676Z,13.77
2016-10-31T10:24:03.682Z,13.8
2016-10-31T10:25:03.656Z,13.76
2016-10-31T10:26:03.641Z,13.71
2016-10-31T10:27:03.641Z,13.69
2016-10-31T10:28:04.244Z,13.61
2016-10-31T10:29:03.614Z,13.61
2016-10-31T10:30:03.635Z,13.58
2016-10-31T10:31:03.903Z,13.58
2016-10-31T10:32:03.580Z,13.69
2016-10-31T10:33:03.568Z,13.87
2016-10-31T10:34:03.554Z,13.96
2016-10-31T10:35:03.863Z,14.07
2016-10-31T10:36:03.532Z,14.04
2016-10-31T10:37:03.843Z,14.09
2016-10-31T10:38:03.506Z,14.2
2016-10-31T10:39:03.501Z,14.16
2016-10-31T10:40:03.481Z,14.17
2016-10-31T10:41:03.484Z,14.1
2016-10-31T10:42:03.777Z,13.94
2016-10-31T10:43:03.766Z,13.95
2016-10-31T10:44:03.452Z,13.89
2016-10-31T10:45:03.434Z,13.88
2016-10-31T10:46:03.431Z,13.88
2016-10-31T10:47:03.749Z,13.91
2016-10-31T10:48:03.399Z,13.92
2016-10-31T10:49:03.390Z,14.07
2016-10-31T10:50:03.733Z,13.99
2016-10-31T10:51:03.390Z,14.07
2016-10-31T10:52:03.356Z,14.1
2016-10-31T10:53:03.343Z,14.17
2016-10-31T10:54:03.664Z,14.17
2016-10-31T10:55:03.666Z,14.1
2016-10-31T10:56:03.322Z,14.14
2016-10-31T10:57:03.300Z,14.16
2016-10-31T10:58:03.329Z,14.13
2016-10-31T10:59:03.302Z,14.13
2016-10-31T11:00:03.296Z,14.16
2016-10-31T11:01:03.590Z,14.14
2016-10-31T11:02:03.292Z,14.28
2016-10-31T11:03:03.245Z,14.24
2016-10-31T11:04:03.264Z,14.28
2016-10-31T11:05:03.218Z,14.25
2016-10-31T11:06:03.208Z,14.38
2016-10-31T11:07:03.520Z,14.43
2016-10-31T11:08:03.185Z,14.44
2016-10-31T11:09:03.494Z,14.52
2016-10-31T11:10:03.477Z,14.56
2016-10-31T11:11:03.466Z,14.75
2016-10-31T11:12:03.147Z,14.8
2016-10-31T11:13:03.135Z,14.93
2016-10-31T11:14:03.127Z,15.05
2016-10-31T11:15:03.739Z,14.95
2016-10-31T11:16:03.105Z,14.94
2016-10-31T11:17:03.098Z,14.94
2016-10-31T11:18:03.087Z,14.88
2016-10-31T11:19:03.083Z,14.91
2016-10-31T11:20:03.087Z,14.98
2016-10-31T11:21:03.370Z,15.27
2016-10-31T11:22:03.050Z,15.63
2016-10-31T11:23:03.048Z,15.92
2016-10-31T11:24:03.034Z,16.04
2016-10-31T11:25:03.026Z,16.07
2016-10-31T11:26:03.020Z,16.12
2016-10-31T11:27:03.321Z,16.04
2016-10-31T11:28:03.000Z,16.03
2016-10-31T11:29:02.991Z,15.92
2016-10-31T11:30:02.987Z,15.96
2016-10-31T11:31:02.976Z,16.01
2016-10-31T11:32:02.970Z,16.09
2016-10-31T11:33:02.969Z,16.12
2016-10-31T11:34:02.954Z,16.11
2016-10-31T11:35:02.946Z,16.07
2016-10-31T11:36:02.935Z,16.04
2016-10-31T11:37:02.932Z,16.03
2016-10-31T11:38:02.923Z,16.09
2016-10-31T11:39:02.919Z,16.14
2016-10-31T11:40:02.907Z,16.26
2016-10-31T11:41:03.214Z,16.38
2016-10-31T11:42:02.892Z,16.58
2016-10-31T11:43:02.889Z,16.77
2016-10-31T11:44:02.883Z,17.2
2016-10-31T11:45:02.870Z,17.57
2016-10-31T11:46:02.932Z,18.24
2016-10-31T11:47:02.859Z,18.65
2016-10-31T11:48:02.856Z,18.99
2016-10-31T11:49:02.845Z,19.35
2016-10-31T11:50:03.151Z,19.54
2016-10-31T11:51:02.839Z,19.78
2016-10-31T11:52:03.146Z,20.02
2016-10-31T11:53:02.827Z,20.47
2016-10-31T11:54:02.827Z,20.59
2016-10-31T11:55:02.818Z,20.8
2016-10-31T11:56:03.133Z,21.06
2016-10-31T11:57:02.811Z,21.24
2016-10-31T11:58:02.803Z,21.57
2016-10-31T11:59:02.801Z,21.27
2016-10-31T12:00:02.807Z,20.91
2016-10-31T12:01:02.997Z,21.05
2016-10-31T12:02:03.115Z,21.3
2016-10-31T12:03:02.792Z,21.67
2016-10-31T12:04:02.790Z,22.04
2016-10-31T12:05:03.096Z,22.2
2016-10-31T12:06:02.786Z,22.5
2016-10-31T12:07:02.782Z,22.75
2016-10-31T12:08:02.775Z,22.97
2016-10-31T12:09:02.778Z,23.08
2016-10-31T12:10:03.087Z,23.38
2016-10-31T12:11:02.769Z,23.43
2016-10-31T12:12:02.764Z,23.46
2016-10-31T12:13:02.766Z,23.65
2016-10-31T12:14:03.077Z,23.5
2016-10-31T12:15:03.320Z,23.65
2016-10-31T12:16:02.762Z,23.83
2016-10-31T12:17:02.759Z,23.86
2016-10-31T12:18:02.766Z,23.67
2016-10-31T12:19:02.769Z,23.85
2016-10-31T12:20:02.753Z,24.01
2016-10-31T12:21:02.746Z,24.26
2016-10-31T12:22:03.065Z,24.38
2016-10-31T12:23:03.061Z,24.38
2016-10-31T12:24:02.748Z,24.5
2016-10-31T12:25:03.060Z,24.69
2016-10-31T12:26:03.062Z,24.88
2016-10-31T12:27:03.093Z,24.91
2016-10-31T12:28:02.745Z,25.07
2016-10-31T12:29:02.744Z,25
2016-10-31T12:30:02.746Z,24.92
2016-10-31T12:31:03.058Z,24.92
2016-10-31T12:32:03.054Z,25.06
2016-10-31T12:33:02.740Z,25.09
2016-10-31T12:34:02.748Z,25.16
2016-10-31T12:35:02.744Z,25.05
2016-10-31T12:36:02.735Z,24.97
2016-10-31T12:37:02.739Z,25.02
2016-10-31T12:38:02.743Z,24.97
2016-10-31T12:39:03.056Z,24.98
2016-10-31T12:40:02.755Z,25
2016-10-31T12:41:03.054Z,24.9
2016-10-31T12:42:02.744Z,24.94
2016-10-31T12:43:02.781Z,24.95
2016-10-31T12:44:02.743Z,25.06
2016-10-31T12:45:02.738Z,25.06
2016-10-31T12:46:03.051Z,25.15
2016-10-31T12:47:02.733Z,25.09
2016-10-31T12:48:02.731Z,24.97
2016-10-31T12:49:02.735Z,25.02
2016-10-31T12:50:02.732Z,25.17
2016-10-31T12:51:02.732Z,25.34
2016-10-31T12:52:02.731Z,25.17
2016-10-31T12:53:02.733Z,25.24
2016-10-31T12:54:03.046Z,25.19
2016-10-31T12:55:03.042Z,24.97
2016-10-31T12:56:02.738Z,25.12
2016-10-31T12:57:02.729Z,25.09
2016-10-31T12:58:02.740Z,25
2016-10-31T12:59:02.733Z,24.94
2016-10-31T13:00:02.739Z,24.94
2016-10-31T13:01:02.735Z,24.87
2016-10-31T13:02:02.740Z,24.47
2016-10-31T13:03:02.725Z,24.38
2016-10-31T13:04:03.049Z,24.44
2016-10-31T13:05:03.047Z,24.6
2016-10-31T13:06:02.735Z,24.75
2016-10-31T13:07:03.047Z,24.75
2016-10-31T13:08:03.044Z,25.01
2016-10-31T13:09:02.724Z,25.09
2016-10-31T13:10:02.727Z,25.01
2016-10-31T13:11:02.734Z,24.97